SAA060R DNMM-FAOR
Flight info
| Callsign | SAA060R |
|---|---|
| Flight time | N/A |
| Altitude | 37000 |
| Route | PISBA1Q PISBA UG856 LV UR526 PILVI/N0441F230 R526 ENIKU/N0486F370 UR526 LIKAD R526 EXITO UR526 VNA/N0442F230 G853 AGRAM/N0479F390 UT941 SOKIM/N0435F230 G853 RUDAS Q25 ITROL/N0440F240 Q44 AVAGO AVAGO1C |
| Aircraft | A346/H-SDE2E3FGHIJ3J4J5M1RWXY/LB1D1 |
Departure
| Time | 2026-05-08 21:42 |
|---|---|
| Airport | Murtala Muhammed International Airport (DNMM) |
Arrival
| Time | N/A |
|---|---|
| Airport | O.R. Tambo International Airport (FAOR) |
| Time | Latitude | Longitude | Altitude | Speed | Heading |
|---|---|---|---|---|---|
| 2026-05-08 20:42 | 6.57933 | 3.31921 | 105 ft | 0 kts | 67° |
| 2026-05-08 21:33 | 6.57934 | 3.31917 | 105 ft | 4 kts | 79° |
| 2026-05-08 21:33 | 6.57934 | 3.31911 | 107 ft | 4 kts | 88° |
| 2026-05-08 21:33 | 6.57934 | 3.31903 | 105 ft | 4 kts | 40° |
| 2026-05-08 21:34 | 6.57919 | 3.31899 | 107 ft | 3 kts | 7° |
| 2026-05-08 21:34 | 6.57896 | 3.31897 | 105 ft | 4 kts | 356° |
| 2026-05-08 21:34 | 6.57874 | 3.31903 | 105 ft | 4 kts | 331° |
| 2026-05-08 21:34 | 6.57856 | 3.31916 | 105 ft | 1 kts | 310° |
| 2026-05-08 21:35 | 6.57856 | 3.31917 | 105 ft | 0 kts | 310° |
| 2026-05-08 21:37 | 6.57860 | 3.31911 | 104 ft | 5 kts | 310° |
| 2026-05-08 21:37 | 6.57928 | 3.31844 | 106 ft | 16 kts | 328° |
| 2026-05-08 21:37 | 6.58036 | 3.31798 | 107 ft | 18 kts | 340° |
| 2026-05-08 21:37 | 6.58110 | 3.31745 | 106 ft | 10 kts | 286° |
| 2026-05-08 21:38 | 6.58093 | 3.31665 | 107 ft | 13 kts | 252° |
| 2026-05-08 21:38 | 6.58064 | 3.31578 | 109 ft | 11 kts | 259° |
| 2026-05-08 21:38 | 6.58073 | 3.31544 | 108 ft | 4 kts | 332° |
| 2026-05-08 21:38 | 6.58108 | 3.31533 | 106 ft | 6 kts | 347° |
| 2026-05-08 21:39 | 6.58191 | 3.31525 | 109 ft | 17 kts | 357° |
| 2026-05-08 21:39 | 6.58317 | 3.31523 | 109 ft | 19 kts | 359° |
| 2026-05-08 21:39 | 6.58457 | 3.31522 | 107 ft | 21 kts | 359° |
| 2026-05-08 21:39 | 6.58606 | 3.31520 | 110 ft | 19 kts | 359° |
| 2026-05-08 21:40 | 6.58688 | 3.31519 | 109 ft | 12 kts | 359° |
| 2026-05-08 21:40 | 6.58776 | 3.31512 | 108 ft | 13 kts | 336° |
| 2026-05-08 21:40 | 6.58810 | 3.31428 | 110 ft | 14 kts | 269° |
| 2026-05-08 21:41 | 6.58682 | 3.31317 | 110 ft | 11 kts | 186° |
| 2026-05-08 21:41 | 6.58650 | 3.31316 | 110 ft | 1 kts | 180° |
| 2026-05-08 21:41 | 6.58412 | 3.31318 | 109 ft | 69 kts | 179° |
| 2026-05-08 21:41 | 6.57680 | 3.31322 | 104 ft | 141 kts | 180° |
| 2026-05-08 21:42 | 6.56497 | 3.31333 | 153 ft | 193 kts | 178° |
| 2026-05-08 21:42 | 6.55132 | 3.31391 | 887 ft | 198 kts | 178° |
| 2026-05-08 21:42 | 6.53753 | 3.31438 | 1865 ft | 194 kts | 180° |
| 2026-05-08 21:42 | 6.52394 | 3.31457 | 2837 ft | 199 kts | 179° |
| 2026-05-08 21:43 | 6.51023 | 3.31598 | 3560 ft | 199 kts | 172° |
| 2026-05-08 21:43 | 6.49649 | 3.31894 | 4000 ft | 206 kts | 168° |
| 2026-05-08 21:43 | 6.48231 | 3.32233 | 4476 ft | 211 kts | 167° |
| 2026-05-08 21:43 | 6.46795 | 3.32586 | 4980 ft | 214 kts | 167° |
| 2026-05-08 21:44 | 6.45342 | 3.32946 | 5472 ft | 216 kts | 166° |
| 2026-05-08 21:44 | 6.43873 | 3.33310 | 5935 ft | 219 kts | 166° |
| 2026-05-08 21:44 | 6.42387 | 3.33678 | 6406 ft | 221 kts | 165° |
| 2026-05-08 21:44 | 6.40869 | 3.34055 | 6751 ft | 230 kts | 165° |
| 2026-05-08 21:45 | 6.39270 | 3.34465 | 6994 ft | 244 kts | 159° |
| 2026-05-08 21:45 | 6.37830 | 3.35407 | 7260 ft | 257 kts | 126° |
| 2026-05-08 21:45 | 6.36846 | 3.36965 | 7603 ft | 271 kts | 120° |
| 2026-05-08 21:45 | 6.35860 | 3.38644 | 8009 ft | 283 kts | 120° |
| 2026-05-08 21:46 | 6.34841 | 3.40357 | 8621 ft | 286 kts | 120° |
| 2026-05-08 21:46 | 6.33811 | 3.42075 | 9272 ft | 287 kts | 119° |
| 2026-05-08 21:46 | 6.32769 | 3.43799 | 9869 ft | 290 kts | 119° |
| 2026-05-08 21:46 | 6.31716 | 3.45538 | 10414 ft | 295 kts | 118° |
| 2026-05-08 21:47 | 6.30619 | 3.47349 | 10698 ft | 310 kts | 118° |
| 2026-05-08 21:47 | 6.29474 | 3.49246 | 10970 ft | 324 kts | 117° |
| 2026-05-08 21:47 | 6.28276 | 3.51230 | 11240 ft | 339 kts | 117° |
| 2026-05-08 21:47 | 6.27025 | 3.53297 | 11506 ft | 353 kts | 117° |
| 2026-05-08 21:48 | 6.25720 | 3.55451 | 11764 ft | 367 kts | 117° |
| 2026-05-08 21:48 | 6.24376 | 3.57667 | 12217 ft | 374 kts | 117° |
| 2026-05-08 21:48 | 6.23017 | 3.59902 | 12899 ft | 375 kts | 117° |
| 2026-05-08 21:48 | 6.21654 | 3.62151 | 13516 ft | 378 kts | 118° |
| 2026-05-08 21:49 | 6.20277 | 3.64423 | 14056 ft | 382 kts | 118° |
| 2026-05-08 21:49 | 6.18903 | 3.66688 | 14603 ft | 386 kts | 118° |
| 2026-05-08 21:49 | 6.17476 | 3.69038 | 15157 ft | 390 kts | 118° |
| 2026-05-08 21:49 | 6.16055 | 3.71376 | 15682 ft | 394 kts | 118° |
| 2026-05-08 21:50 | 6.14620 | 3.73740 | 16161 ft | 398 kts | 119° |
| 2026-05-08 21:50 | 6.13191 | 3.76091 | 16662 ft | 401 kts | 119° |
| 2026-05-08 21:50 | 6.11710 | 3.78527 | 17165 ft | 404 kts | 119° |
| 2026-05-08 21:50 | 6.10234 | 3.80954 | 17636 ft | 408 kts | 120° |
| 2026-05-08 21:51 | 6.08766 | 3.83369 | 18085 ft | 412 kts | 120° |
| 2026-05-08 21:51 | 6.07266 | 3.85835 | 18529 ft | 415 kts | 120° |
| 2026-05-08 21:51 | 6.05753 | 3.88320 | 18999 ft | 418 kts | 120° |
| 2026-05-08 21:51 | 6.04233 | 3.90816 | 19460 ft | 420 kts | 120° |
| 2026-05-08 21:52 | 6.02703 | 3.93331 | 19910 ft | 422 kts | 120° |
| 2026-05-08 21:52 | 6.01166 | 3.95857 | 20344 ft | 424 kts | 120° |
| 2026-05-08 21:52 | 5.99625 | 3.98390 | 20775 ft | 427 kts | 120° |
| 2026-05-08 21:52 | 5.98075 | 4.00940 | 21193 ft | 429 kts | 120° |
| 2026-05-08 21:53 | 5.96512 | 4.03508 | 21610 ft | 431 kts | 120° |
| 2026-05-08 21:53 | 5.94902 | 4.06085 | 22002 ft | 434 kts | 122° |
| 2026-05-08 21:53 | 5.93121 | 4.08545 | 22379 ft | 437 kts | 126° |
| 2026-05-08 21:53 | 5.91144 | 4.10881 | 22764 ft | 440 kts | 130° |
| 2026-05-08 21:54 | 5.88997 | 4.13090 | 23120 ft | 443 kts | 133° |
| 2026-05-08 21:54 | 5.86797 | 4.15267 | 23469 ft | 445 kts | 133° |
| 2026-05-08 21:54 | 5.84580 | 4.17449 | 23813 ft | 447 kts | 133° |
| 2026-05-08 21:54 | 5.82348 | 4.19644 | 24151 ft | 449 kts | 133° |
| 2026-05-08 21:55 | 5.80112 | 4.21846 | 24472 ft | 451 kts | 133° |
| 2026-05-08 21:55 | 5.77865 | 4.24061 | 24767 ft | 454 kts | 133° |
| 2026-05-08 21:55 | 5.76368 | 4.25538 | 24947 ft | 456 kts | 133° |
| 2026-05-08 21:56 | 5.71798 | 4.30045 | 25515 ft | 461 kts | 133° |
| 2026-05-08 21:56 | 5.69505 | 4.32307 | 25795 ft | 464 kts | 133° |
| 2026-05-08 21:56 | 5.67197 | 4.34585 | 26046 ft | 466 kts | 133° |
| 2026-05-08 21:56 | 5.66078 | 4.35689 | 26185 ft | 468 kts | 133° |
| 2026-05-08 21:57 | 5.63714 | 4.38021 | 26445 ft | 470 kts | 133° |
| 2026-05-08 21:57 | 5.61370 | 4.40332 | 26704 ft | 473 kts | 133° |
| 2026-05-08 21:57 | 5.59017 | 4.42653 | 26974 ft | 475 kts | 133° |
| 2026-05-08 21:57 | 5.56649 | 4.44988 | 27236 ft | 478 kts | 133° |
| 2026-05-08 21:58 | 5.54271 | 4.47333 | 27483 ft | 480 kts | 133° |
| 2026-05-08 21:58 | 5.51885 | 4.49685 | 27731 ft | 482 kts | 133° |
| 2026-05-08 21:58 | 5.49482 | 4.52055 | 27984 ft | 485 kts | 133° |
| 2026-05-08 21:58 | 5.47072 | 4.54430 | 28240 ft | 487 kts | 133° |
| 2026-05-08 21:59 | 5.44651 | 4.56816 | 28577 ft | 487 kts | 133° |
| 2026-05-08 21:59 | 5.42238 | 4.59193 | 28965 ft | 486 kts | 133° |
| 2026-05-08 21:59 | 5.39827 | 4.61568 | 29328 ft | 485 kts | 132° |
| 2026-05-08 21:59 | 5.37416 | 4.63941 | 29661 ft | 485 kts | 132° |
| 2026-05-08 22:00 | 5.35001 | 4.66319 | 30001 ft | 485 kts | 132° |
| 2026-05-08 22:00 | 5.32594 | 4.68691 | 30336 ft | 485 kts | 132° |
| 2026-05-08 22:00 | 5.30187 | 4.71064 | 30675 ft | 485 kts | 132° |
| 2026-05-08 22:00 | 5.27778 | 4.73440 | 31020 ft | 484 kts | 133° |
| 2026-05-08 22:01 | 5.25378 | 4.75806 | 31362 ft | 484 kts | 133° |
| 2026-05-08 22:01 | 5.22972 | 4.78175 | 31692 ft | 483 kts | 133° |
| 2026-05-08 22:01 | 5.20604 | 4.80506 | 32023 ft | 483 kts | 133° |
| 2026-05-08 22:01 | 5.18208 | 4.82866 | 32371 ft | 482 kts | 133° |
| 2026-05-08 22:02 | 5.15810 | 4.85226 | 32687 ft | 482 kts | 133° |
| 2026-05-08 22:02 | 5.13419 | 4.87579 | 33014 ft | 481 kts | 133° |
| 2026-05-08 22:02 | 5.11035 | 4.89927 | 33322 ft | 481 kts | 133° |
| 2026-05-08 22:02 | 5.08643 | 4.92280 | 33629 ft | 480 kts | 133° |
| 2026-05-08 22:03 | 5.06260 | 4.94625 | 33952 ft | 480 kts | 133° |
| 2026-05-08 22:03 | 5.03875 | 4.96970 | 34245 ft | 479 kts | 133° |
| 2026-05-08 22:03 | 5.01496 | 4.99308 | 34542 ft | 478 kts | 133° |
| 2026-05-08 22:03 | 4.99113 | 5.01653 | 34820 ft | 478 kts | 133° |
| 2026-05-08 22:04 | 4.96739 | 5.03989 | 35108 ft | 478 kts | 133° |
| 2026-05-08 22:04 | 4.94363 | 5.06325 | 35344 ft | 478 kts | 133° |
| 2026-05-08 22:04 | 4.91985 | 5.08663 | 35555 ft | 479 kts | 133° |
| 2026-05-08 22:04 | 4.89601 | 5.11009 | 35746 ft | 480 kts | 133° |
| 2026-05-08 22:05 | 4.87216 | 5.13355 | 35939 ft | 481 kts | 133° |
| 2026-05-08 22:05 | 4.84821 | 5.15711 | 36122 ft | 482 kts | 133° |
| 2026-05-08 22:05 | 4.82425 | 5.18067 | 36333 ft | 483 kts | 134° |
| 2026-05-08 22:05 | 4.80019 | 5.20430 | 36495 ft | 484 kts | 134° |
| 2026-05-08 22:06 | 4.77606 | 5.22787 | 36656 ft | 485 kts | 134° |
| 2026-05-08 22:06 | 4.75180 | 5.25151 | 36847 ft | 486 kts | 134° |
| 2026-05-08 22:06 | 4.72761 | 5.27508 | 36896 ft | 484 kts | 134° |
| 2026-05-08 22:07 | 4.67958 | 5.32192 | 36903 ft | 479 kts | 134° |
| 2026-05-08 22:07 | 4.63192 | 5.36844 | 36919 ft | 477 kts | 134° |
| 2026-05-08 22:08 | 4.58431 | 5.41490 | 36908 ft | 477 kts | 134° |
| 2026-05-08 22:08 | 4.53681 | 5.46127 | 36907 ft | 476 kts | 134° |
| 2026-05-08 22:09 | 4.48929 | 5.50764 | 36904 ft | 476 kts | 134° |
| 2026-05-08 22:09 | 4.44183 | 5.55395 | 36906 ft | 476 kts | 133° |
| 2026-05-08 22:10 | 4.39444 | 5.60021 | 36907 ft | 475 kts | 133° |
| 2026-05-08 22:10 | 4.34740 | 5.64608 | 36916 ft | 475 kts | 133° |
| 2026-05-08 22:11 | 4.29999 | 5.69226 | 36905 ft | 474 kts | 133° |
| 2026-05-08 22:11 | 4.25262 | 5.73836 | 36914 ft | 474 kts | 133° |
| 2026-05-08 22:12 | 4.20525 | 5.78448 | 36907 ft | 474 kts | 133° |
| 2026-05-08 22:12 | 4.15796 | 5.83056 | 36903 ft | 474 kts | 133° |
| 2026-05-08 22:13 | 4.11069 | 5.87661 | 36916 ft | 474 kts | 133° |
| 2026-05-08 22:13 | 4.06343 | 5.92264 | 36916 ft | 474 kts | 133° |
| 2026-05-08 22:14 | 4.01618 | 5.96865 | 36914 ft | 474 kts | 133° |
| 2026-05-08 22:14 | 3.96886 | 6.01474 | 36920 ft | 474 kts | 133° |
| 2026-05-08 22:15 | 3.92160 | 6.06077 | 36903 ft | 474 kts | 133° |
| 2026-05-08 22:15 | 3.87435 | 6.10679 | 36905 ft | 474 kts | 133° |
| 2026-05-08 22:16 | 3.82705 | 6.15279 | 36916 ft | 474 kts | 133° |
| 2026-05-08 22:16 | 3.77961 | 6.19863 | 36908 ft | 474 kts | 134° |
| 2026-05-08 22:17 | 3.73215 | 6.24449 | 36914 ft | 474 kts | 133° |
| 2026-05-08 22:17 | 3.68470 | 6.29038 | 36906 ft | 474 kts | 133° |
| 2026-05-08 22:18 | 3.63767 | 6.33586 | 36903 ft | 473 kts | 133° |
| 2026-05-08 22:18 | 3.58983 | 6.38214 | 36903 ft | 473 kts | 133° |
| 2026-05-08 22:19 | 3.54247 | 6.42795 | 36903 ft | 473 kts | 133° |
| 2026-05-08 22:19 | 3.49538 | 6.47349 | 36911 ft | 473 kts | 133° |
| 2026-05-08 22:20 | 3.44805 | 6.51925 | 36909 ft | 473 kts | 133° |
| 2026-05-08 22:20 | 3.40068 | 6.56505 | 36910 ft | 473 kts | 133° |
| 2026-05-08 22:21 | 3.35336 | 6.61080 | 36905 ft | 473 kts | 133° |
| 2026-05-08 22:21 | 3.30606 | 6.65652 | 36906 ft | 472 kts | 133° |
| 2026-05-08 22:22 | 3.25878 | 6.70225 | 36903 ft | 472 kts | 133° |
| 2026-05-08 22:22 | 3.21150 | 6.74796 | 36906 ft | 472 kts | 133° |
| 2026-05-08 22:23 | 3.16426 | 6.79367 | 36905 ft | 472 kts | 133° |
| 2026-05-08 22:23 | 3.11731 | 6.83971 | 36903 ft | 472 kts | 133° |
| 2026-05-08 22:24 | 3.07076 | 6.88548 | 36909 ft | 472 kts | 133° |
| 2026-05-08 22:24 | 3.02393 | 6.93152 | 36902 ft | 472 kts | 133° |
| 2026-05-08 22:25 | 2.97717 | 6.97746 | 36913 ft | 472 kts | 133° |
| 2026-05-08 22:25 | 2.93035 | 7.02345 | 36902 ft | 472 kts | 133° |
| 2026-05-08 22:26 | 2.88351 | 7.06943 | 36911 ft | 471 kts | 133° |
| 2026-05-08 22:26 | 2.83666 | 7.11545 | 36911 ft | 471 kts | 133° |
| 2026-05-08 22:27 | 2.78988 | 7.16139 | 36918 ft | 471 kts | 133° |
| 2026-05-08 22:27 | 2.74309 | 7.20734 | 36928 ft | 471 kts | 133° |
| 2026-05-08 22:28 | 2.69635 | 7.25322 | 36914 ft | 471 kts | 133° |
| 2026-05-08 22:28 | 2.64959 | 7.29913 | 36912 ft | 471 kts | 133° |
| 2026-05-08 22:29 | 2.60284 | 7.34504 | 36912 ft | 470 kts | 133° |
| 2026-05-08 22:29 | 2.55616 | 7.39088 | 36918 ft | 470 kts | 133° |
| 2026-05-08 22:30 | 2.50944 | 7.43659 | 36928 ft | 470 kts | 133° |
| 2026-05-08 22:30 | 2.46234 | 7.48201 | 36908 ft | 470 kts | 133° |
| 2026-05-08 22:31 | 2.41524 | 7.52742 | 36912 ft | 469 kts | 133° |
| 2026-05-08 22:31 | 2.36827 | 7.57278 | 36913 ft | 469 kts | 133° |
| 2026-05-08 22:32 | 2.32163 | 7.61785 | 36924 ft | 469 kts | 133° |
| 2026-05-08 22:32 | 2.27467 | 7.66322 | 36928 ft | 469 kts | 133° |
| 2026-05-08 22:33 | 2.22771 | 7.70860 | 36927 ft | 469 kts | 133° |
| 2026-05-08 22:33 | 2.18083 | 7.75388 | 36928 ft | 468 kts | 133° |
| 2026-05-08 22:34 | 2.13393 | 7.79920 | 36928 ft | 468 kts | 133° |
| 2026-05-08 22:34 | 2.08707 | 7.84448 | 36912 ft | 468 kts | 133° |
| 2026-05-08 22:35 | 2.04024 | 7.88972 | 36912 ft | 468 kts | 133° |
| 2026-05-08 22:35 | 1.99338 | 7.93500 | 36928 ft | 468 kts | 133° |
| 2026-05-08 22:36 | 1.94651 | 7.98030 | 36928 ft | 468 kts | 133° |
| 2026-05-08 22:36 | 1.89969 | 8.02554 | 36928 ft | 468 kts | 133° |
| 2026-05-08 22:37 | 1.85291 | 8.07086 | 36928 ft | 468 kts | 133° |
| 2026-05-08 22:37 | 1.80612 | 8.11622 | 36928 ft | 468 kts | 133° |
| 2026-05-08 22:38 | 1.75933 | 8.16161 | 36928 ft | 468 kts | 133° |
| 2026-05-08 22:38 | 1.71255 | 8.20699 | 36929 ft | 468 kts | 133° |
| 2026-05-08 22:39 | 1.66576 | 8.25237 | 36929 ft | 468 kts | 133° |
| 2026-05-08 22:39 | 1.61894 | 8.29777 | 36928 ft | 469 kts | 133° |
| 2026-05-08 22:40 | 1.57246 | 8.34284 | 36930 ft | 469 kts | 133° |
| 2026-05-08 22:40 | 1.52559 | 8.38830 | 36930 ft | 469 kts | 133° |
| 2026-05-08 22:41 | 1.47868 | 8.43378 | 36929 ft | 469 kts | 133° |
| 2026-05-08 22:41 | 1.43178 | 8.47926 | 36929 ft | 469 kts | 133° |
| 2026-05-08 22:42 | 1.38488 | 8.52474 | 36927 ft | 470 kts | 133° |
| 2026-05-08 22:42 | 1.33793 | 8.57026 | 36909 ft | 470 kts | 133° |
| 2026-05-08 22:43 | 1.29098 | 8.61581 | 36913 ft | 470 kts | 133° |
| 2026-05-08 22:43 | 1.24400 | 8.66137 | 36928 ft | 471 kts | 133° |
| 2026-05-08 22:44 | 1.19694 | 8.70700 | 36929 ft | 471 kts | 133° |
| 2026-05-08 22:44 | 1.14988 | 8.75254 | 36929 ft | 471 kts | 133° |
| 2026-05-08 22:45 | 1.10276 | 8.79815 | 36935 ft | 471 kts | 133° |
| 2026-05-08 22:45 | 1.06362 | 8.83607 | 36935 ft | 471 kts | 133° |
| 2026-05-08 22:46 | 1.01651 | 8.88172 | 36937 ft | 471 kts | 133° |
| 2026-05-08 22:46 | 0.96944 | 8.92733 | 36936 ft | 472 kts | 133° |
| 2026-05-08 22:47 | 0.92230 | 8.97300 | 36936 ft | 472 kts | 133° |
| 2026-05-08 22:47 | 0.87521 | 9.01863 | 36936 ft | 472 kts | 133° |
| 2026-05-08 22:48 | 0.82809 | 9.06431 | 36937 ft | 472 kts | 134° |
| 2026-05-08 22:48 | 0.78087 | 9.11007 | 36937 ft | 472 kts | 134° |
| 2026-05-08 22:49 | 0.73369 | 9.15579 | 36935 ft | 472 kts | 134° |
| 2026-05-08 22:49 | 0.66290 | 9.22440 | 36936 ft | 472 kts | 134° |
| 2026-05-08 22:50 | 0.61598 | 9.26989 | 36936 ft | 473 kts | 134° |
| 2026-05-08 22:50 | 0.56877 | 9.31566 | 36936 ft | 473 kts | 134° |
| 2026-05-08 22:51 | 0.51969 | 9.35966 | 36937 ft | 475 kts | 139° |
| 2026-05-08 22:51 | 0.46582 | 9.39810 | 36928 ft | 477 kts | 146° |
| 2026-05-08 22:52 | 0.40770 | 9.43031 | 36928 ft | 479 kts | 152° |
| 2026-05-08 22:52 | 0.34641 | 9.45661 | 36928 ft | 480 kts | 156° |
| 2026-05-08 22:53 | 0.28457 | 9.48178 | 36935 ft | 480 kts | 156° |
| 2026-05-08 22:53 | 0.22268 | 9.50704 | 36936 ft | 480 kts | 156° |
| 2026-05-08 22:54 | 0.16092 | 9.53229 | 36936 ft | 480 kts | 156° |
| 2026-05-08 22:54 | 0.09908 | 9.55760 | 36936 ft | 480 kts | 156° |
| 2026-05-08 22:55 | 0.03724 | 9.58293 | 36936 ft | 480 kts | 156° |
| 2026-05-08 22:55 | -0.02453 | 9.60822 | 36936 ft | 480 kts | 156° |
| 2026-05-08 22:56 | -0.08594 | 9.63337 | 36937 ft | 480 kts | 156° |
| 2026-05-08 22:56 | -0.14820 | 9.65886 | 36936 ft | 480 kts | 156° |
| 2026-05-08 22:57 | -0.20960 | 9.68401 | 36936 ft | 480 kts | 156° |
| 2026-05-08 22:57 | -0.27151 | 9.70936 | 36936 ft | 480 kts | 156° |
| 2026-05-08 22:58 | -0.33328 | 9.73467 | 36939 ft | 480 kts | 156° |
| 2026-05-08 22:58 | -0.39507 | 9.75998 | 36944 ft | 480 kts | 156° |
| 2026-05-08 22:59 | -0.45685 | 9.78529 | 36946 ft | 480 kts | 156° |
| 2026-05-08 22:59 | -0.51866 | 9.81062 | 36946 ft | 480 kts | 156° |
| 2026-05-08 23:00 | -0.58049 | 9.83598 | 36946 ft | 480 kts | 156° |
| 2026-05-08 23:00 | -0.64227 | 9.86127 | 36945 ft | 480 kts | 156° |
| 2026-05-08 23:01 | -0.70402 | 9.88649 | 36945 ft | 480 kts | 156° |
| 2026-05-08 23:01 | -0.76584 | 9.91179 | 36958 ft | 480 kts | 156° |
| 2026-05-08 23:02 | -0.82758 | 9.93708 | 36963 ft | 479 kts | 156° |
| 2026-05-08 23:02 | -0.88930 | 9.96236 | 36963 ft | 479 kts | 156° |
| 2026-05-08 23:03 | -0.95102 | 9.98764 | 36966 ft | 479 kts | 156° |
| 2026-05-08 23:03 | -1.01258 | 10.01288 | 36965 ft | 479 kts | 156° |
| 2026-05-08 23:04 | -1.07418 | 10.03812 | 36964 ft | 478 kts | 156° |
| 2026-05-08 23:04 | -1.13592 | 10.06341 | 36963 ft | 478 kts | 156° |
| 2026-05-08 23:05 | -1.19750 | 10.08864 | 36964 ft | 478 kts | 156° |
| 2026-05-08 23:05 | -1.25856 | 10.11367 | 36965 ft | 478 kts | 156° |
| 2026-05-08 23:06 | -1.32015 | 10.13891 | 36963 ft | 478 kts | 156° |
| 2026-05-08 23:06 | -1.38206 | 10.16428 | 36964 ft | 478 kts | 156° |
| 2026-05-08 23:07 | -1.44320 | 10.18935 | 36964 ft | 478 kts | 156° |
| 2026-05-08 23:07 | -1.50472 | 10.21457 | 36963 ft | 478 kts | 156° |
| 2026-05-08 23:08 | -1.56621 | 10.23979 | 36964 ft | 478 kts | 156° |
| 2026-05-08 23:08 | -1.62771 | 10.26502 | 36964 ft | 478 kts | 156° |
| 2026-05-08 23:09 | -1.68925 | 10.29027 | 36963 ft | 478 kts | 156° |
| 2026-05-08 23:09 | -1.75078 | 10.31554 | 36957 ft | 478 kts | 156° |
| 2026-05-08 23:10 | -1.81198 | 10.34145 | 36954 ft | 477 kts | 154° |
| 2026-05-08 23:10 | -1.87052 | 10.37260 | 36953 ft | 476 kts | 148° |
| 2026-05-08 23:11 | -1.92592 | 10.40888 | 36955 ft | 476 kts | 145° |
| 2026-05-08 23:11 | -1.98084 | 10.44599 | 36955 ft | 476 kts | 145° |
| 2026-05-08 23:12 | -2.03564 | 10.48301 | 36955 ft | 476 kts | 145° |
| 2026-05-08 23:12 | -2.09057 | 10.52007 | 36954 ft | 476 kts | 145° |
| 2026-05-08 23:13 | -2.14547 | 10.55709 | 36955 ft | 476 kts | 145° |
| 2026-05-08 23:13 | -2.20042 | 10.59414 | 36955 ft | 476 kts | 145° |
| 2026-05-08 23:14 | -2.25529 | 10.63114 | 36955 ft | 476 kts | 145° |
| 2026-05-08 23:14 | -2.31014 | 10.66813 | 36955 ft | 475 kts | 145° |
| 2026-05-08 23:15 | -2.36498 | 10.70512 | 36954 ft | 475 kts | 145° |
| 2026-05-08 23:15 | -2.41948 | 10.74188 | 36955 ft | 475 kts | 145° |
| 2026-05-08 23:16 | -2.47433 | 10.77887 | 36955 ft | 475 kts | 145° |
| 2026-05-08 23:16 | -2.52917 | 10.81587 | 36954 ft | 475 kts | 145° |
| 2026-05-08 23:17 | -2.58397 | 10.85285 | 36955 ft | 475 kts | 145° |
| 2026-05-08 23:17 | -2.63880 | 10.88984 | 36955 ft | 475 kts | 145° |
| 2026-05-08 23:18 | -2.69357 | 10.92680 | 36955 ft | 475 kts | 145° |
| 2026-05-08 23:18 | -2.74843 | 10.96383 | 36955 ft | 475 kts | 145° |
| 2026-05-08 23:19 | -2.80314 | 11.00076 | 36955 ft | 475 kts | 145° |
| 2026-05-08 23:19 | -2.85792 | 11.03773 | 36955 ft | 475 kts | 145° |
| 2026-05-08 23:20 | -2.91269 | 11.07471 | 36954 ft | 475 kts | 145° |
| 2026-05-08 23:20 | -2.96747 | 11.11169 | 36954 ft | 475 kts | 145° |
| 2026-05-08 23:21 | -3.02225 | 11.14868 | 36954 ft | 475 kts | 145° |
| 2026-05-08 23:21 | -3.07699 | 11.18565 | 36955 ft | 474 kts | 145° |
| 2026-05-08 23:22 | -3.13138 | 11.22239 | 36954 ft | 474 kts | 145° |
| 2026-05-08 23:22 | -3.18612 | 11.25938 | 36954 ft | 475 kts | 145° |
| 2026-05-08 23:23 | -3.24085 | 11.29635 | 36954 ft | 475 kts | 145° |
| 2026-05-08 23:23 | -3.29561 | 11.33336 | 36955 ft | 475 kts | 145° |
| 2026-05-08 23:24 | -3.35040 | 11.37039 | 36954 ft | 475 kts | 145° |
| 2026-05-08 23:24 | -3.40518 | 11.40742 | 36954 ft | 475 kts | 145° |
| 2026-05-08 23:25 | -3.45993 | 11.44443 | 36955 ft | 475 kts | 145° |
| 2026-05-08 23:25 | -3.51472 | 11.48147 | 36955 ft | 475 kts | 144° |
| 2026-05-08 23:26 | -3.56946 | 11.51847 | 36954 ft | 475 kts | 144° |
| 2026-05-08 23:26 | -3.62424 | 11.55553 | 36954 ft | 475 kts | 144° |
| 2026-05-08 23:27 | -3.67895 | 11.59254 | 36955 ft | 475 kts | 144° |
| 2026-05-08 23:27 | -3.73375 | 11.62961 | 36955 ft | 475 kts | 144° |
| 2026-05-08 23:28 | -3.78850 | 11.66666 | 36955 ft | 475 kts | 144° |
| 2026-05-08 23:28 | -3.84324 | 11.70371 | 36954 ft | 475 kts | 144° |
| 2026-05-08 23:29 | -3.89805 | 11.74080 | 36955 ft | 475 kts | 144° |
| 2026-05-08 23:29 | -3.95278 | 11.77784 | 36954 ft | 475 kts | 144° |
| 2026-05-08 23:30 | -4.00747 | 11.81487 | 36955 ft | 475 kts | 144° |
| 2026-05-08 23:30 | -4.06217 | 11.85191 | 36954 ft | 475 kts | 144° |
| 2026-05-08 23:31 | -4.11690 | 11.88898 | 36955 ft | 475 kts | 144° |
| 2026-05-08 23:31 | -4.17166 | 11.92607 | 36955 ft | 475 kts | 144° |
| 2026-05-08 23:32 | -4.21710 | 11.95686 | 36955 ft | 475 kts | 144° |
| 2026-05-08 23:32 | -4.27186 | 11.99398 | 36954 ft | 475 kts | 144° |
| 2026-05-08 23:33 | -4.32654 | 12.03104 | 36955 ft | 475 kts | 144° |
| 2026-05-08 23:33 | -4.38135 | 12.06819 | 36954 ft | 475 kts | 144° |
| 2026-05-08 23:34 | -4.43613 | 12.10532 | 36955 ft | 475 kts | 144° |
| 2026-05-08 23:34 | -4.49094 | 12.14249 | 36955 ft | 476 kts | 144° |
| 2026-05-08 23:35 | -4.54581 | 12.17970 | 36954 ft | 476 kts | 144° |
| 2026-05-08 23:35 | -4.60026 | 12.21663 | 36954 ft | 476 kts | 144° |
| 2026-05-08 23:36 | -4.65511 | 12.25386 | 36954 ft | 476 kts | 145° |
| 2026-05-08 23:36 | -4.71002 | 12.29111 | 36955 ft | 476 kts | 145° |
| 2026-05-08 23:37 | -4.76490 | 12.32836 | 36955 ft | 476 kts | 145° |
| 2026-05-08 23:37 | -4.81986 | 12.36568 | 36961 ft | 477 kts | 145° |
| 2026-05-08 23:38 | -4.87485 | 12.40301 | 36956 ft | 477 kts | 145° |
| 2026-05-08 23:38 | -4.92976 | 12.44029 | 36959 ft | 477 kts | 145° |
| 2026-05-08 23:39 | -4.98473 | 12.47765 | 36963 ft | 477 kts | 145° |
| 2026-05-08 23:39 | -5.03971 | 12.51499 | 36964 ft | 477 kts | 145° |
| 2026-05-08 23:40 | -5.09477 | 12.55242 | 36965 ft | 478 kts | 145° |
| 2026-05-08 23:40 | -5.14978 | 12.58980 | 36965 ft | 478 kts | 145° |
| 2026-05-08 23:41 | -5.20487 | 12.62726 | 36963 ft | 478 kts | 145° |
| 2026-05-08 23:41 | -5.25995 | 12.66470 | 36964 ft | 478 kts | 145° |
| 2026-05-08 23:42 | -5.31505 | 12.70218 | 36966 ft | 478 kts | 146° |
| 2026-05-08 23:42 | -5.37014 | 12.73965 | 36963 ft | 478 kts | 146° |
| 2026-05-08 23:43 | -5.42531 | 12.77717 | 36963 ft | 478 kts | 146° |
| 2026-05-08 23:43 | -5.48042 | 12.81468 | 36966 ft | 478 kts | 145° |
| 2026-05-08 23:44 | -5.53556 | 12.85222 | 36964 ft | 478 kts | 145° |
| 2026-05-08 23:44 | -5.59066 | 12.88974 | 36964 ft | 478 kts | 146° |
| 2026-05-08 23:45 | -5.64578 | 12.92728 | 36966 ft | 479 kts | 146° |
| 2026-05-08 23:45 | -5.70091 | 12.96483 | 36964 ft | 478 kts | 146° |
| 2026-05-08 23:46 | -5.75596 | 13.00233 | 36964 ft | 478 kts | 146° |
| 2026-05-08 23:46 | -5.81106 | 13.03990 | 36965 ft | 478 kts | 146° |
| 2026-05-08 23:47 | -5.86611 | 13.07742 | 36964 ft | 478 kts | 146° |
| 2026-05-08 23:47 | -5.92126 | 13.11502 | 36963 ft | 478 kts | 146° |
| 2026-05-08 23:48 | -5.97602 | 13.15237 | 36964 ft | 479 kts | 146° |
| 2026-05-08 23:48 | -6.03108 | 13.18992 | 36964 ft | 478 kts | 146° |
| 2026-05-08 23:49 | -6.08597 | 13.22739 | 36964 ft | 476 kts | 146° |
| 2026-05-08 23:49 | -6.14083 | 13.26487 | 36963 ft | 477 kts | 146° |
| 2026-05-08 23:50 | -6.19577 | 13.30237 | 36963 ft | 479 kts | 146° |
| 2026-05-08 23:50 | -6.25095 | 13.34003 | 36964 ft | 479 kts | 146° |
| 2026-05-08 23:51 | -6.30615 | 13.37772 | 36964 ft | 479 kts | 146° |
| 2026-05-08 23:51 | -6.36130 | 13.41540 | 36964 ft | 479 kts | 146° |
| 2026-05-08 23:52 | -6.41646 | 13.45310 | 36969 ft | 479 kts | 146° |
| 2026-05-08 23:52 | -6.47167 | 13.49085 | 36972 ft | 479 kts | 146° |
| 2026-05-08 23:53 | -6.52683 | 13.52856 | 36973 ft | 479 kts | 146° |
| 2026-05-08 23:53 | -6.58200 | 13.56629 | 36973 ft | 479 kts | 146° |
| 2026-05-08 23:54 | -6.63717 | 13.60404 | 36981 ft | 480 kts | 146° |
| 2026-05-08 23:55 | -6.71998 | 13.66071 | 36982 ft | 480 kts | 146° |
| 2026-05-08 23:55 | -6.77523 | 13.69855 | 36988 ft | 480 kts | 146° |
| 2026-05-08 23:56 | -6.83044 | 13.73634 | 36988 ft | 480 kts | 146° |
| 2026-05-08 23:56 | -6.88566 | 13.77417 | 36991 ft | 480 kts | 146° |
| 2026-05-08 23:57 | -6.94057 | 13.81179 | 36991 ft | 480 kts | 146° |
| 2026-05-08 23:57 | -6.99586 | 13.84970 | 36991 ft | 481 kts | 146° |
| 2026-05-08 23:58 | -7.05111 | 13.88759 | 36992 ft | 481 kts | 146° |
| 2026-05-08 23:58 | -7.10645 | 13.92553 | 36999 ft | 481 kts | 146° |
| 2026-05-08 23:59 | -7.16182 | 13.96352 | 37000 ft | 481 kts | 146° |
| 2026-05-08 23:59 | -7.21713 | 14.00148 | 37001 ft | 482 kts | 146° |
| 2026-05-09 00:00 | -7.27258 | 14.03953 | 37000 ft | 482 kts | 146° |
| 2026-05-09 00:00 | -7.32807 | 14.07764 | 37006 ft | 482 kts | 146° |
| 2026-05-09 00:01 | -7.38348 | 14.11569 | 37010 ft | 482 kts | 146° |
| 2026-05-09 00:01 | -7.43899 | 14.15385 | 37010 ft | 483 kts | 146° |
| 2026-05-09 00:02 | -7.49452 | 14.19201 | 37010 ft | 483 kts | 146° |
| 2026-05-09 00:02 | -7.55004 | 14.23018 | 37014 ft | 483 kts | 146° |
| 2026-05-09 00:03 | -7.60560 | 14.26836 | 37018 ft | 483 kts | 146° |
| 2026-05-09 00:03 | -7.66118 | 14.30660 | 37019 ft | 483 kts | 146° |
| 2026-05-09 00:04 | -7.71668 | 14.34481 | 37019 ft | 483 kts | 146° |
| 2026-05-09 00:04 | -7.77223 | 14.38305 | 37030 ft | 483 kts | 146° |
| 2026-05-09 00:05 | -7.82741 | 14.42104 | 37027 ft | 483 kts | 146° |
| 2026-05-09 00:05 | -7.88294 | 14.45929 | 37028 ft | 483 kts | 146° |
| 2026-05-09 00:06 | -7.93847 | 14.49756 | 37037 ft | 483 kts | 146° |
| 2026-05-09 00:06 | -7.99404 | 14.53586 | 37041 ft | 483 kts | 146° |
| 2026-05-09 00:07 | -8.04954 | 14.57414 | 37032 ft | 484 kts | 146° |
| 2026-05-09 00:07 | -8.10519 | 14.61253 | 37044 ft | 484 kts | 146° |
| 2026-05-09 00:08 | -8.16083 | 14.65092 | 37046 ft | 485 kts | 146° |
| 2026-05-09 00:08 | -8.21653 | 14.68936 | 37049 ft | 485 kts | 146° |
| 2026-05-09 00:09 | -8.27225 | 14.72784 | 37052 ft | 484 kts | 146° |
| 2026-05-09 00:09 | -8.32787 | 14.76625 | 37055 ft | 484 kts | 146° |
| 2026-05-09 00:10 | -8.38353 | 14.80471 | 37054 ft | 484 kts | 146° |
| 2026-05-09 00:10 | -8.43909 | 14.84311 | 37065 ft | 484 kts | 146° |
| 2026-05-09 00:11 | -8.49474 | 14.88159 | 37067 ft | 484 kts | 146° |
| 2026-05-09 00:11 | -8.55034 | 14.92004 | 37068 ft | 484 kts | 146° |
| 2026-05-09 00:12 | -8.60592 | 14.95851 | 37072 ft | 484 kts | 146° |
| 2026-05-09 00:12 | -8.66149 | 14.99697 | 37074 ft | 484 kts | 146° |
| 2026-05-09 00:13 | -8.71728 | 15.03559 | 37082 ft | 484 kts | 146° |
| 2026-05-09 00:13 | -8.77289 | 15.07412 | 37083 ft | 485 kts | 146° |
| 2026-05-09 00:14 | -8.82859 | 15.11271 | 37098 ft | 485 kts | 146° |
| 2026-05-09 00:14 | -8.88421 | 15.15127 | 37102 ft | 485 kts | 146° |
| 2026-05-09 00:15 | -8.93984 | 15.18985 | 37102 ft | 485 kts | 146° |
| 2026-05-09 00:15 | -8.99519 | 15.22824 | 37100 ft | 485 kts | 146° |
| 2026-05-09 00:16 | -9.05087 | 15.26688 | 37102 ft | 485 kts | 146° |
| 2026-05-09 00:16 | -9.10654 | 15.30554 | 37107 ft | 486 kts | 146° |
| 2026-05-09 00:17 | -9.16229 | 15.34425 | 37107 ft | 486 kts | 146° |
| 2026-05-09 00:17 | -9.21798 | 15.38295 | 37114 ft | 486 kts | 147° |
| 2026-05-09 00:18 | -9.27376 | 15.42172 | 37121 ft | 486 kts | 147° |
| 2026-05-09 00:18 | -9.32949 | 15.46047 | 37121 ft | 486 kts | 147° |
| 2026-05-09 00:19 | -9.38533 | 15.49931 | 37138 ft | 486 kts | 147° |
| 2026-05-09 00:19 | -9.44110 | 15.53813 | 37149 ft | 487 kts | 147° |
| 2026-05-09 00:20 | -9.49695 | 15.57700 | 37157 ft | 487 kts | 147° |
| 2026-05-09 00:20 | -9.55278 | 15.61589 | 37157 ft | 487 kts | 147° |
| 2026-05-09 00:21 | -9.59923 | 15.64825 | 37159 ft | 487 kts | 147° |
| 2026-05-09 00:21 | -9.65513 | 15.68720 | 37161 ft | 487 kts | 147° |
| 2026-05-09 00:22 | -9.71100 | 15.72617 | 37165 ft | 488 kts | 147° |
| 2026-05-09 00:22 | -9.76698 | 15.76520 | 37166 ft | 488 kts | 147° |
| 2026-05-09 00:23 | -9.82291 | 15.80423 | 37160 ft | 488 kts | 147° |
| 2026-05-09 00:23 | -9.87887 | 15.84331 | 37143 ft | 488 kts | 147° |
| 2026-05-09 00:24 | -9.93490 | 15.88243 | 37146 ft | 488 kts | 147° |
| 2026-05-09 00:24 | -9.99084 | 15.92151 | 37149 ft | 488 kts | 147° |
| 2026-05-09 00:25 | -10.04679 | 15.96062 | 37157 ft | 488 kts | 147° |
| 2026-05-09 00:25 | -10.10276 | 15.99976 | 37172 ft | 488 kts | 147° |
| 2026-05-09 00:26 | -10.15826 | 16.03859 | 37172 ft | 488 kts | 147° |
| 2026-05-09 00:26 | -10.21460 | 16.07802 | 37173 ft | 488 kts | 147° |
| 2026-05-09 00:27 | -10.27017 | 16.11693 | 37182 ft | 488 kts | 147° |
| 2026-05-09 00:27 | -10.32619 | 16.15619 | 37191 ft | 489 kts | 147° |
| 2026-05-09 00:28 | -10.38221 | 16.19545 | 37180 ft | 489 kts | 147° |
| 2026-05-09 00:28 | -10.43819 | 16.23469 | 37189 ft | 489 kts | 147° |
| 2026-05-09 00:29 | -10.49427 | 16.27404 | 37194 ft | 489 kts | 147° |
| 2026-05-09 00:29 | -10.55032 | 16.31337 | 37196 ft | 489 kts | 147° |
| 2026-05-09 00:30 | -10.60638 | 16.35272 | 37194 ft | 490 kts | 147° |
| 2026-05-09 00:30 | -10.66250 | 16.39214 | 37196 ft | 490 kts | 147° |
| 2026-05-09 00:31 | -10.71865 | 16.43159 | 37194 ft | 490 kts | 147° |
| 2026-05-09 00:31 | -10.77483 | 16.47110 | 37194 ft | 491 kts | 147° |
| 2026-05-09 00:32 | -10.83099 | 16.51059 | 37195 ft | 491 kts | 147° |
| 2026-05-09 00:32 | -10.88719 | 16.55014 | 37163 ft | 491 kts | 147° |
| 2026-05-09 00:33 | -10.94345 | 16.58975 | 37170 ft | 491 kts | 147° |
| 2026-05-09 00:33 | -10.99969 | 16.62936 | 37171 ft | 491 kts | 147° |
| 2026-05-09 00:34 | -11.05588 | 16.66896 | 37165 ft | 492 kts | 147° |
| 2026-05-09 00:34 | -11.11215 | 16.70863 | 37180 ft | 492 kts | 147° |
| 2026-05-09 00:35 | -11.16846 | 16.74834 | 37176 ft | 492 kts | 147° |
| 2026-05-09 00:35 | -11.22475 | 16.78807 | 37172 ft | 492 kts | 147° |
| 2026-05-09 00:36 | -11.28107 | 16.82784 | 37178 ft | 492 kts | 147° |
| 2026-05-09 00:36 | -11.33733 | 16.86758 | 37194 ft | 492 kts | 147° |
| 2026-05-09 00:37 | -11.39370 | 16.90741 | 37179 ft | 492 kts | 147° |
| 2026-05-09 00:37 | -11.45004 | 16.94725 | 37194 ft | 492 kts | 147° |
| 2026-05-09 00:38 | -11.50639 | 16.98711 | 37176 ft | 493 kts | 147° |
| 2026-05-09 00:38 | -11.56267 | 17.02695 | 37195 ft | 493 kts | 147° |
| 2026-05-09 00:39 | -11.61911 | 17.06691 | 37195 ft | 494 kts | 147° |
| 2026-05-09 00:39 | -11.67520 | 17.10665 | 37194 ft | 494 kts | 147° |
| 2026-05-09 00:40 | -11.73166 | 17.14667 | 37195 ft | 494 kts | 147° |
| 2026-05-09 00:40 | -11.78807 | 17.18668 | 37193 ft | 494 kts | 147° |
| 2026-05-09 00:41 | -11.87291 | 17.24689 | 37196 ft | 495 kts | 147° |
| 2026-05-09 00:41 | -11.92947 | 17.28704 | 37192 ft | 495 kts | 147° |
| 2026-05-09 00:42 | -11.98605 | 17.32724 | 37196 ft | 495 kts | 147° |
| 2026-05-09 00:42 | -12.04256 | 17.36744 | 37195 ft | 496 kts | 148° |
| 2026-05-09 00:43 | -12.09935 | 17.40782 | 37194 ft | 497 kts | 148° |
| 2026-05-09 00:43 | -12.15609 | 17.44819 | 37194 ft | 497 kts | 148° |
| 2026-05-09 00:44 | -12.21282 | 17.48858 | 37195 ft | 497 kts | 148° |
| 2026-05-09 00:44 | -12.26961 | 17.52903 | 37195 ft | 497 kts | 148° |
| 2026-05-09 00:45 | -12.32642 | 17.56951 | 37195 ft | 497 kts | 148° |
| 2026-05-09 00:45 | -12.38285 | 17.60976 | 37195 ft | 497 kts | 148° |
| 2026-05-09 00:46 | -12.43962 | 17.65026 | 37195 ft | 497 kts | 148° |
| 2026-05-09 00:46 | -12.49639 | 17.69080 | 37194 ft | 497 kts | 148° |
| 2026-05-09 00:47 | -12.55314 | 17.73134 | 37196 ft | 497 kts | 148° |
| 2026-05-09 00:47 | -12.60989 | 17.77189 | 37194 ft | 497 kts | 148° |
| 2026-05-09 00:48 | -12.66666 | 17.81249 | 37194 ft | 498 kts | 148° |
| 2026-05-09 00:48 | -12.72347 | 17.85313 | 37184 ft | 498 kts | 148° |
| 2026-05-09 00:49 | -12.78023 | 17.89376 | 37181 ft | 497 kts | 148° |
| 2026-05-09 00:49 | -12.83699 | 17.93443 | 37187 ft | 498 kts | 148° |
| 2026-05-09 00:50 | -12.89379 | 17.97513 | 37199 ft | 498 kts | 148° |
| 2026-05-09 00:50 | -12.95063 | 18.01589 | 37200 ft | 498 kts | 148° |
| 2026-05-09 00:51 | -13.00738 | 18.05660 | 37196 ft | 499 kts | 148° |
| 2026-05-09 00:51 | -13.06432 | 18.09748 | 37195 ft | 499 kts | 148° |
| 2026-05-09 00:52 | -13.12117 | 18.13832 | 37195 ft | 499 kts | 148° |
| 2026-05-09 00:52 | -13.17805 | 18.17920 | 37191 ft | 499 kts | 148° |
| 2026-05-09 00:53 | -13.23500 | 18.22015 | 37195 ft | 499 kts | 148° |
| 2026-05-09 00:53 | -13.29188 | 18.26109 | 37196 ft | 499 kts | 148° |
| 2026-05-09 00:54 | -13.34876 | 18.30203 | 37194 ft | 499 kts | 148° |
| 2026-05-09 00:54 | -13.40565 | 18.34301 | 37184 ft | 499 kts | 148° |
| 2026-05-09 00:55 | -13.46264 | 18.38409 | 37180 ft | 499 kts | 148° |
| 2026-05-09 00:55 | -13.51947 | 18.42507 | 37182 ft | 499 kts | 148° |
| 2026-05-09 00:56 | -13.57606 | 18.46592 | 37190 ft | 500 kts | 148° |
| 2026-05-09 00:56 | -13.63300 | 18.50704 | 37194 ft | 500 kts | 148° |
| 2026-05-09 00:57 | -13.68994 | 18.54817 | 37178 ft | 500 kts | 148° |
| 2026-05-09 00:57 | -13.74693 | 18.58937 | 37193 ft | 500 kts | 148° |
| 2026-05-09 00:58 | -13.80384 | 18.63054 | 37178 ft | 500 kts | 148° |
| 2026-05-09 00:58 | -13.86077 | 18.67176 | 37177 ft | 500 kts | 148° |
| 2026-05-09 00:59 | -13.91768 | 18.71297 | 37176 ft | 500 kts | 148° |
| 2026-05-09 00:59 | -13.97461 | 18.75423 | 37176 ft | 500 kts | 148° |
| 2026-05-09 01:00 | -14.03146 | 18.79546 | 37175 ft | 500 kts | 148° |
| 2026-05-09 01:00 | -14.08855 | 18.83691 | 37175 ft | 502 kts | 148° |
| 2026-05-09 01:01 | -14.14570 | 18.87839 | 37176 ft | 502 kts | 148° |
| 2026-05-09 01:01 | -14.20286 | 18.91992 | 37174 ft | 503 kts | 148° |
| 2026-05-09 01:02 | -14.26003 | 18.96148 | 37175 ft | 503 kts | 148° |
| 2026-05-09 01:02 | -14.31716 | 19.00303 | 37179 ft | 503 kts | 148° |
| 2026-05-09 01:03 | -14.37434 | 19.04465 | 37174 ft | 503 kts | 148° |
| 2026-05-09 01:03 | -14.43151 | 19.08630 | 37169 ft | 503 kts | 148° |
| 2026-05-09 01:04 | -14.48831 | 19.12770 | 37165 ft | 503 kts | 148° |
| 2026-05-09 01:04 | -14.51397 | 19.14641 | 37172 ft | 503 kts | 148° |